Time;durP1;ratioP1;P1;durP2;ratioP2;P2;SDS_P1;SDS_P2;PMS_P1;PMS_P2;Temp;Humidity;BMP_temperature;BMP_pressure;BME280_temperature;BME280_humidity;BME280_pressure;Samples;Min_cycle;Max_cycle;Signal;HPM_P1;HPM_P2
2022/07/01 00:02:24;;;;;;;2.10;1.40;;;;;;;;;;5055596;28;20525;-77
2022/07/01 00:04:53;;;;;;;3.13;2.03;;;;;;;;;;5054319;28;21144;-78
2022/07/01 00:07:20;;;;;;;1.90;1.60;;;;;;;;;;5055287;28;20933;-78
2022/07/01 00:09:47;;;;;;;2.83;1.73;;;;;;;;;;5059459;28;20454;-78
2022/07/01 00:12:14;;;;;;;1.63;1.53;;;;;;;;;;5056349;28;20531;-78
2022/07/01 00:14:41;;;;;;;2.20;1.20;;;;;;;;;;5053122;28;20566;-78
2022/07/01 00:17:09;;;;;;;2.20;1.23;;;;;;;;;;5052963;28;20515;-78
2022/07/01 00:19:36;;;;;;;2.40;1.37;;;;;;;;;;5052619;28;20512;-78
2022/07/01 00:22:04;;;;;;;1.57;1.27;;;;;;;;;;5052811;28;20881;-78
2022/07/01 00:24:31;;;;;;;2.10;1.70;;;;;;;;;;5053068;28;20433;-78
2022/07/01 00:26:58;;;;;;;2.53;1.53;;;;;;;;;;5053225;28;20471;-78
2022/07/01 00:29:25;;;;;;;3.13;1.47;;;;;;;;;;5053392;28;20503;-77
2022/07/01 00:31:52;;;;;;;7.10;1.80;;;;;;;;;;5054858;28;20902;-77
2022/07/01 00:34:19;;;;;;;2.30;1.87;;;;;;;;;;5052628;28;20913;-77
2022/07/01 00:36:46;;;;;;;2.10;1.53;;;;;;;;;;5053541;28;20472;-79
2022/07/01 00:39:15;;;;;;;2.27;1.60;;;;;;;;;;5047610;28;20458;-77
2022/07/01 00:41:42;;;;;;;2.20;1.40;;;;;;;;;;5053749;28;20515;-78
2022/07/01 00:44:16;;;;;;;1.43;1.10;;;;;;;;;;5052669;28;20442;-78
2022/07/01 00:46:43;;;;;;;2.00;1.40;;;;;;;;;;5052546;28;20437;-78
2022/07/01 00:49:11;;;;;;;3.00;1.70;;;;;;;;;;5054788;28;20864;-79
2022/07/01 00:51:38;;;;;;;3.00;2.07;;;;;;;;;;5053016;28;20470;-79
2022/07/01 00:54:05;;;;;;;1.60;1.50;;;;;;;;;;5052369;28;20531;-79
2022/07/01 00:56:33;;;;;;;1.50;1.40;;;;;;;;;;5053780;28;20453;-79
2022/07/01 00:59:01;;;;;;;1.87;1.63;;;;;;;;;;5052664;28;20449;-77
2022/07/01 01:01:28;;;;;;;1.83;1.40;;;;;;;;;;5052367;28;20469;-77
2022/07/01 01:03:55;;;;;;;1.93;1.83;;;;;;;;;;5052558;28;20441;-77
2022/07/01 01:06:22;;;;;;;1.57;1.43;;;;;;;;;;5052082;28;20458;-77
2022/07/01 01:08:49;;;;;;;1.53;1.07;;;;;;;;;;5052190;28;20446;-77
2022/07/01 01:11:17;;;;;;;2.60;1.10;;;;;;;;;;5052442;28;20548;-76
2022/07/01 01:13:45;;;;;;;1.53;1.43;;;;;;;;;;5051962;28;21004;-77
2022/07/01 01:16:17;;;;;;;1.20;1.20;;;;;;;;;;5053017;28;20506;-76
2022/07/01 01:18:44;;;;;;;1.80;1.43;;;;;;;;;;5052645;28;20460;-77
2022/07/01 01:21:12;;;;;;;1.80;1.10;;;;;;;;;;5051973;28;20881;-76
2022/07/01 01:23:39;;;;;;;2.13;1.50;;;;;;;;;;5051558;28;20453;-76
2022/07/01 01:26:16;;;;;;;1.53;1.00;;;;;;;;;;5051469;28;20434;-76
2022/07/01 01:28:43;;;;;;;1.20;1.00;;;;;;;;;;5052173;28;20437;-78
2022/07/01 01:31:10;;;;;;;3.47;1.43;;;;;;;;;;5051314;28;20774;-77
2022/07/01 01:33:37;;;;;;;1.60;1.30;;;;;;;;;;5051427;28;20537;-77
2022/07/01 01:36:05;;;;;;;1.23;1.13;;;;;;;;;;5051814;28;20495;-76
2022/07/01 01:38:34;;;;;;;0.90;0.90;;;;;;;;;;5051564;28;20524;-76
2022/07/01 01:41:01;;;;;;;0.90;0.90;;;;;;;;;;5049035;28;20465;-76
2022/07/01 01:43:28;;;;;;;1.40;0.73;;;;;;;;;;5048486;28;20462;-77
2022/07/01 01:46:00;;;;;;;1.70;1.10;;;;;;;;;;5051544;28;20544;-76
2022/07/01 01:48:27;;;;;;;1.37;1.00;;;;;;;;;;5051417;28;20469;-77
2022/07/01 01:50:54;;;;;;;1.47;0.93;;;;;;;;;;5050948;28;20469;-77
2022/07/01 01:53:21;;;;;;;1.27;1.17;;;;;;;;;;5051043;28;20512;-78
2022/07/01 01:55:49;;;;;;;2.30;0.90;;;;;;;;;;5051318;28;20525;-77
2022/07/01 01:58:17;;;;;;;1.50;1.03;;;;;;;;;;5051350;28;20445;-77
2022/07/01 02:00:44;;;;;;;1.07;1.03;;;;;;;;;;5051154;28;20575;-79
2022/07/01 02:03:11;;;;;;;1.27;1.20;;;;;;;;;;5050863;28;20453;-77
2022/07/01 02:05:38;;;;;;;1.53;0.90;;;;;;;;;;5050344;28;20476;-77
2022/07/01 02:08:05;;;;;;;1.10;1.10;;;;;;;;;;5051318;28;20449;-76
2022/07/01 02:10:33;;;;;;;1.00;1.00;;;;;;;;;;5050995;28;20441;-77
2022/07/01 02:13:01;;;;;;;1.10;1.10;;;;;;;;;;5051338;28;20460;-77
2022/07/01 02:15:28;;;;;;;3.37;1.07;;;;;;;;;;5056244;28;20495;-77
2022/07/01 02:17:56;;;;;;;1.17;0.90;;;;;;;;;;5054093;28;20453;-77
2022/07/01 02:20:23;;;;;;;0.90;0.90;;;;;;;;;;5050741;28;21031;-77
2022/07/01 02:22:51;;;;;;;4.20;1.17;;;;;;;;;;5050602;28;20474;-77
2022/07/01 02:25:19;;;;;;;1.23;1.20;;;;;;;;;;5050279;28;20519;-77
2022/07/01 02:27:46;;;;;;;1.00;0.90;;;;;;;;;;5050629;28;20489;-76
2022/07/01 02:30:14;;;;;;;1.83;1.20;;;;;;;;;;5050488;28;20449;-77
2022/07/01 02:32:42;;;;;;;1.43;1.30;;;;;;;;;;5050317;28;20465;-76
2022/07/01 02:35:10;;;;;;;1.10;1.10;;;;;;;;;;5050730;28;20536;-77
2022/07/01 02:37:37;;;;;;;1.30;1.20;;;;;;;;;;5050714;28;20457;-76
2022/07/01 02:40:04;;;;;;;1.20;1.10;;;;;;;;;;5050432;28;20437;-76
2022/07/01 02:42:34;;;;;;;0.97;0.97;;;;;;;;;;5050049;28;20918;-76
2022/07/01 02:45:02;;;;;;;3.20;1.60;;;;;;;;;;5050262;28;20480;-76
2022/07/01 02:47:33;;;;;;;1.90;1.17;;;;;;;;;;5050266;28;20442;-76
2022/07/01 02:50:00;;;;;;;1.30;1.20;;;;;;;;;;5050410;28;20472;-77
2022/07/01 02:52:28;;;;;;;2.07;1.00;;;;;;;;;;5050102;28;20556;-76
2022/07/01 02:54:55;;;;;;;1.10;1.10;;;;;;;;;;5050360;28;20477;-78
2022/07/01 02:57:22;;;;;;;1.80;1.37;;;;;;;;;;5050210;28;20552;-76
2022/07/01 02:59:50;;;;;;;1.40;1.30;;;;;;;;;;5050150;28;20433;-76
2022/07/01 03:02:17;;;;;;;2.10;1.40;;;;;;;;;;5049994;28;20803;-77
2022/07/01 03:04:46;;;;;;;1.60;1.50;;;;;;;;;;5049960;28;20477;-76
2022/07/01 03:07:13;;;;;;;1.60;1.50;;;;;;;;;;5050203;28;20454;-76
2022/07/01 03:09:40;;;;;;;2.50;1.57;;;;;;;;;;5035700;28;20520;-76
2022/07/01 03:14:49;;;;;;;1.50;1.40;;;;;;;;;;5029620;28;20509;-78
2022/07/01 03:17:16;;;;;;;1.80;1.70;;;;;;;;;;5034131;28;20438;-78
2022/07/01 03:19:43;;;;;;;1.90;1.67;;;;;;;;;;5034614;28;20524;-77
2022/07/01 03:22:13;;;;;;;2.10;1.83;;;;;;;;;;5034373;28;21040;-77
2022/07/01 03:24:40;;;;;;;1.63;1.57;;;;;;;;;;5034605;28;20750;-77
2022/07/01 03:27:08;;;;;;;1.20;1.17;;;;;;;;;;5034257;28;20442;-77
2022/07/01 03:29:35;;;;;;;1.70;1.60;;;;;;;;;;5034381;28;20458;-77
2022/07/01 03:32:02;;;;;;;1.43;1.10;;;;;;;;;;5037879;28;20528;-77
2022/07/01 03:34:29;;;;;;;1.30;1.20;;;;;;;;;;5048710;28;21004;-78
2022/07/01 03:36:56;;;;;;;1.43;1.17;;;;;;;;;;5054483;28;20449;-77
2022/07/01 03:39:25;;;;;;;2.03;1.53;;;;;;;;;;5054650;28;20491;-76
2022/07/01 03:41:52;;;;;;;1.43;1.23;;;;;;;;;;5054356;28;20496;-76
2022/07/01 03:44:19;;;;;;;1.37;1.27;;;;;;;;;;5054703;28;20472;-78
2022/07/01 03:46:46;;;;;;;1.27;1.27;;;;;;;;;;5054787;28;20594;-77
2022/07/01 03:49:13;;;;;;;1.47;1.37;;;;;;;;;;5054331;28;20480;-78
2022/07/01 03:51:40;;;;;;;1.50;1.40;;;;;;;;;;5053772;28;20473;-77
2022/07/01 03:56:53;;;;;;;2.47;1.90;;;;;;;;;;5054408;28;20471;-77
2022/07/01 03:59:20;;;;;;;2.07;1.57;;;;;;;;;;5054092;28;20464;-77
2022/07/01 04:01:47;;;;;;;3.20;1.90;;;;;;;;;;5053608;28;20497;-77
2022/07/01 04:04:14;;;;;;;2.17;2.07;;;;;;;;;;5053561;28;20441;-76
2022/07/01 04:06:41;;;;;;;3.23;2.13;;;;;;;;;;5054096;28;20445;-77
2022/07/01 04:09:08;;;;;;;2.23;1.70;;;;;;;;;;5053820;28;20449;-77
2022/07/01 04:11:35;;;;;;;4.00;2.13;;;;;;;;;;5053544;28;20453;-76
2022/07/01 04:14:04;;;;;;;2.47;1.90;;;;;;;;;;5053232;28;20491;-77
2022/07/01 04:16:31;;;;;;;2.27;1.83;;;;;;;;;;5053630;28;20595;-78
2022/07/01 04:18:59;;;;;;;4.23;2.17;;;;;;;;;;5054567;28;20441;-79
2022/07/01 04:24:13;;;;;;;2.50;1.70;;;;;;;;;;5053949;28;20413;-78
2022/07/01 04:26:40;;;;;;;1.80;1.70;;;;;;;;;;5054102;28;20485;-78
2022/07/01 04:29:09;;;;;;;1.77;1.63;;;;;;;;;;5052955;28;20445;-76
2022/07/01 04:31:36;;;;;;;2.77;1.70;;;;;;;;;;5053948;28;20473;-77
2022/07/01 04:34:03;;;;;;;2.60;1.60;;;;;;;;;;5049512;28;20460;-77
2022/07/01 04:36:30;;;;;;;1.67;1.57;;;;;;;;;;5052594;28;20446;-77
2022/07/01 04:38:57;;;;;;;3.13;1.57;;;;;;;;;;5052873;28;20437;-77
2022/07/01 04:44:10;;;;;;;1.60;1.50;;;;;;;;;;5067127;28;20456;-76
2022/07/01 04:46:37;;;;;;;2.10;1.90;;;;;;;;;;5059677;28;20478;-76
2022/07/01 04:49:04;;;;;;;2.50;1.80;;;;;;;;;;5065541;28;20446;-76
2022/07/01 04:51:34;;;;;;;1.63;1.53;;;;;;;;;;5067136;28;20465;-77
2022/07/01 04:54:01;;;;;;;2.00;1.90;;;;;;;;;;5067547;28;20534;-76
2022/07/01 04:56:28;;;;;;;2.33;2.13;;;;;;;;;;5069797;28;20488;-76
2022/07/01 04:58:55;;;;;;;2.00;1.90;;;;;;;;;;5059245;28;20544;-76
2022/07/01 05:01:24;;;;;;;3.10;2.03;;;;;;;;;;5052915;28;20469;-77
2022/07/01 05:03:51;;;;;;;2.27;2.00;;;;;;;;;;5052779;28;20456;-78
2022/07/01 05:06:18;;;;;;;2.97;1.70;;;;;;;;;;5052843;28;20842;-78
2022/07/01 05:08:45;;;;;;;2.47;1.73;;;;;;;;;;5053209;28;20450;-78
2022/07/01 05:11:12;;;;;;;2.37;1.87;;;;;;;;;;5054039;28;21062;-78
2022/07/01 05:13:40;;;;;;;1.90;1.80;;;;;;;;;;5063536;28;20867;-77
2022/07/01 05:16:08;;;;;;;1.80;1.70;;;;;;;;;;5075838;28;20450;-78
2022/07/01 05:24:08;;;;;;;4.30;2.00;;;;;;;;;;5053082;28;20421;-78
2022/07/01 05:26:35;;;;;;;2.43;2.03;;;;;;;;;;5052518;28;20527;-77
2022/07/01 05:29:02;;;;;;;3.63;2.40;;;;;;;;;;5052929;28;20445;-78
2022/07/01 05:31:29;;;;;;;2.00;1.80;;;;;;;;;;5051845;28;20497;-77
2022/07/01 05:33:57;;;;;;;4.63;2.33;;;;;;;;;;5051745;28;20543;-77
2022/07/01 05:36:24;;;;;;;3.43;2.50;;;;;;;;;;5052907;28;20437;-78
2022/07/01 05:38:51;;;;;;;2.30;2.10;;;;;;;;;;5052501;28;21175;-77
2022/07/01 05:41:18;;;;;;;2.00;1.90;;;;;;;;;;5052578;28;20518;-78
2022/07/01 05:43:45;;;;;;;2.87;2.60;;;;;;;;;;5052477;28;20426;-77
2022/07/01 05:46:13;;;;;;;2.43;2.20;;;;;;;;;;5051862;28;20477;-77
2022/07/01 05:48:40;;;;;;;2.77;2.57;;;;;;;;;;5052125;28;20461;-78
2022/07/01 05:51:08;;;;;;;3.10;2.83;;;;;;;;;;5052537;28;20465;-78
2022/07/01 05:53:35;;;;;;;3.87;2.73;;;;;;;;;;5052965;28;20841;-77
2022/07/01 05:56:02;;;;;;;3.30;3.10;;;;;;;;;;5045703;28;20446;-78
2022/07/01 05:58:29;;;;;;;2.60;2.40;;;;;;;;;;5043173;28;20516;-77
2022/07/01 06:00:56;;;;;;;3.20;2.90;;;;;;;;;;5040457;28;20977;-78
2022/07/01 06:03:23;;;;;;;3.33;2.70;;;;;;;;;;5049858;28;20433;-78
2022/07/01 06:05:50;;;;;;;3.20;3.00;;;;;;;;;;5050963;28;20477;-78
2022/07/01 06:08:18;;;;;;;3.30;3.10;;;;;;;;;;5048546;28;20996;-78
2022/07/01 06:10:45;;;;;;;3.30;3.07;;;;;;;;;;5031892;28;20887;-77
2022/07/01 06:13:12;;;;;;;3.20;2.90;;;;;;;;;;5031424;28;20443;-77
2022/07/01 06:15:39;;;;;;;2.53;2.43;;;;;;;;;;5031541;28;20442;-78
2022/07/01 06:18:06;;;;;;;3.67;3.37;;;;;;;;;;5030868;28;20455;-78
2022/07/01 06:20:34;;;;;;;3.67;3.37;;;;;;;;;;5030580;28;20873;-77
2022/07/01 06:23:01;;;;;;;3.07;2.87;;;;;;;;;;5030901;28;20450;-78
2022/07/01 06:25:29;;;;;;;2.53;2.43;;;;;;;;;;5030799;28;21001;-77
2022/07/01 06:27:56;;;;;;;2.90;2.60;;;;;;;;;;5030501;28;20446;-77
2022/07/01 06:30:23;;;;;;;3.73;3.50;;;;;;;;;;5030405;28;20439;-77
2022/07/01 06:32:50;;;;;;;3.03;2.83;;;;;;;;;;5030485;28;20462;-78
2022/07/01 06:35:17;;;;;;;3.30;3.03;;;;;;;;;;5031047;28;20512;-77
2022/07/01 06:37:44;;;;;;;4.90;3.10;;;;;;;;;;5030642;28;20481;-78
2022/07/01 06:40:11;;;;;;;2.67;2.53;;;;;;;;;;5030381;28;20465;-78
2022/07/01 06:42:40;;;;;;;3.03;2.83;;;;;;;;;;5030259;28;20498;-78
2022/07/01 06:45:07;;;;;;;2.80;2.60;;;;;;;;;;5030555;28;20454;-78
2022/07/01 06:47:36;;;;;;;4.50;3.13;;;;;;;;;;5030753;28;20848;-78
2022/07/01 06:50:03;;;;;;;4.87;4.47;;;;;;;;;;5030821;28;20509;-78
2022/07/01 06:52:30;;;;;;;4.30;3.03;;;;;;;;;;5030512;28;20624;-79
2022/07/01 06:54:57;;;;;;;3.03;2.83;;;;;;;;;;5030794;28;20446;-77
2022/07/01 06:57:24;;;;;;;3.00;2.70;;;;;;;;;;5033892;28;20450;-78
2022/07/01 06:59:52;;;;;;;3.07;2.77;;;;;;;;;;5050777;28;20450;-78
2022/07/01 07:02:20;;;;;;;4.90;2.60;;;;;;;;;;5050970;28;20556;-78
2022/07/01 07:04:47;;;;;;;2.67;2.47;;;;;;;;;;5050667;28;20967;-78
2022/07/01 07:07:14;;;;;;;2.80;2.60;;;;;;;;;;5050470;28;20833;-78
2022/07/01 07:09:41;;;;;;;2.90;2.70;;;;;;;;;;5050439;28;20445;-78
2022/07/01 07:12:09;;;;;;;4.00;2.63;;;;;;;;;;5050093;28;20468;-79
2022/07/01 07:14:36;;;;;;;2.83;2.63;;;;;;;;;;5050529;28;20881;-78
2022/07/01 07:17:04;;;;;;;3.00;2.67;;;;;;;;;;5051002;28;20464;-79
2022/07/01 07:19:31;;;;;;;3.10;2.80;;;;;;;;;;5050013;28;20495;-78
2022/07/01 07:21:59;;;;;;;3.57;3.13;;;;;;;;;;5050130;28;20465;-78
2022/07/01 07:24:25;;;;;;;2.80;2.60;;;;;;;;;;5049458;28;21031;-79
2022/07/01 07:26:53;;;;;;;3.07;2.87;;;;;;;;;;5049319;28;20527;-78
2022/07/01 07:29:20;;;;;;;2.57;2.47;;;;;;;;;;5049923;28;20438;-78
2022/07/01 07:31:47;;;;;;;2.87;2.23;;;;;;;;;;5049703;28;20912;-78
2022/07/01 07:34:15;;;;;;;2.70;2.50;;;;;;;;;;5048920;28;20441;-78
2022/07/01 07:36:42;;;;;;;2.53;2.30;;;;;;;;;;5049189;28;20453;-78
2022/07/01 07:39:09;;;;;;;2.60;2.40;;;;;;;;;;5049787;28;20501;-78
2022/07/01 07:41:36;;;;;;;3.70;3.27;;;;;;;;;;5050855;28;20480;-78
2022/07/01 07:44:03;;;;;;;2.83;2.50;;;;;;;;;;5049846;28;20441;-78
2022/07/01 07:46:30;;;;;;;2.73;2.53;;;;;;;;;;5049926;28;21008;-78
2022/07/01 07:48:57;;;;;;;2.60;2.43;;;;;;;;;;5050703;28;20461;-79
2022/07/01 07:51:26;;;;;;;3.53;2.77;;;;;;;;;;5046227;28;20535;-75
2022/07/01 07:53:53;;;;;;;2.70;2.50;;;;;;;;;;5030388;28;20450;-75
2022/07/01 07:56:20;;;;;;;3.40;3.20;;;;;;;;;;5030653;28;20565;-76
2022/07/01 07:58:47;;;;;;;3.00;2.80;;;;;;;;;;5035162;28;20544;-76
2022/07/01 08:01:14;;;;;;;3.30;2.80;;;;;;;;;;5043298;28;20482;-75
2022/07/01 08:03:41;;;;;;;2.70;2.50;;;;;;;;;;5046242;28;20529;-75
2022/07/01 08:06:08;;;;;;;2.80;2.60;;;;;;;;;;5050033;28;20891;-75
2022/07/01 08:08:37;;;;;;;2.83;2.60;;;;;;;;;;5052921;28;20445;-76
2022/07/01 08:11:04;;;;;;;2.70;2.50;;;;;;;;;;5046237;28;20461;-75
2022/07/01 08:13:31;;;;;;;3.10;2.90;;;;;;;;;;5043971;28;20449;-76
2022/07/01 08:15:59;;;;;;;3.20;2.90;;;;;;;;;;5048913;28;20442;-76
2022/07/01 08:18:26;;;;;;;3.40;3.00;;;;;;;;;;5039312;28;20443;-75
2022/07/01 08:20:53;;;;;;;2.87;2.67;;;;;;;;;;5050020;28;20844;-75
2022/07/01 08:23:20;;;;;;;3.03;2.37;;;;;;;;;;5056465;28;20437;-76
2022/07/01 08:25:49;;;;;;;2.70;2.50;;;;;;;;;;5055291;28;20485;-74
2022/07/01 08:28:16;;;;;;;2.60;2.00;;;;;;;;;;5053842;28;20491;-76
2022/07/01 08:30:43;;;;;;;2.80;2.60;;;;;;;;;;5052613;28;20446;-75
2022/07/01 08:33:10;;;;;;;4.50;2.80;;;;;;;;;;5049117;28;20479;-76
2022/07/01 08:35:37;;;;;;;2.77;2.50;;;;;;;;;;5052611;28;20827;-75
2022/07/01 08:38:05;;;;;;;2.50;2.30;;;;;;;;;;5051568;28;20441;-75
2022/07/01 08:40:32;;;;;;;2.70;2.50;;;;;;;;;;5050993;28;20448;-75
2022/07/01 08:43:02;;;;;;;2.57;2.37;;;;;;;;;;5054338;28;20453;-76
2022/07/01 08:45:30;;;;;;;2.20;2.10;;;;;;;;;;5055440;28;20449;-76
2022/07/01 08:48:00;;;;;;;2.07;1.97;;;;;;;;;;5055075;28;21020;-76
2022/07/01 08:50:28;;;;;;;2.57;2.40;;;;;;;;;;5054667;28;20529;-76
2022/07/01 08:52:55;;;;;;;2.60;2.40;;;;;;;;;;5053713;28;20511;-76
2022/07/01 08:55:23;;;;;;;4.13;2.50;;;;;;;;;;5052704;28;20522;-76
2022/07/01 08:57:50;;;;;;;3.07;2.80;;;;;;;;;;5052266;28;20433;-76
2022/07/01 09:00:18;;;;;;;2.63;2.43;;;;;;;;;;5052325;28;20449;-76
2022/07/01 09:02:53;;;;;;;2.50;2.30;;;;;;;;;;5051616;28;20465;-76
2022/07/01 09:05:20;;;;;;;3.13;2.90;;;;;;;;;;5052349;28;20441;-77
2022/07/01 09:07:47;;;;;;;3.00;2.80;;;;;;;;;;5052280;28;20865;-76
2022/07/01 09:10:17;;;;;;;2.40;2.30;;;;;;;;;;5052059;28;20571;-76
2022/07/01 09:12:44;;;;;;;2.93;2.73;;;;;;;;;;5051606;28;20551;-76
2022/07/01 09:15:25;;;;;;;3.37;2.83;;;;;;;;;;5051335;28;20481;-74
2022/07/01 09:17:52;;;;;;;2.83;2.63;;;;;;;;;;5052170;28;20703;-76
2022/07/01 09:20:26;;;;;;;3.77;2.90;;;;;;;;;;5052012;28;20446;-77
2022/07/01 09:23:00;;;;;;;3.00;2.80;;;;;;;;;;5051684;28;20469;-75
2022/07/01 09:25:30;;;;;;;2.97;2.77;;;;;;;;;;5051880;28;20445;-76
2022/07/01 09:28:04;;;;;;;2.90;2.73;;;;;;;;;;5051554;28;20996;-76
2022/07/01 09:30:33;;;;;;;2.40;2.20;;;;;;;;;;5052085;28;20449;-76
2022/07/01 09:33:11;;;;;;;2.50;2.30;;;;;;;;;;5048363;28;20442;-77
2022/07/01 09:35:38;;;;;;;2.37;2.17;;;;;;;;;;5039822;28;20500;-76
2022/07/01 09:38:07;;;;;;;2.73;2.43;;;;;;;;;;5032550;28;20461;-76
2022/07/01 09:40:46;;;;;;;2.80;2.30;;;;;;;;;;5032603;28;20464;-76
2022/07/01 09:43:15;;;;;;;2.37;2.17;;;;;;;;;;5041178;28;20528;-76
2022/07/01 09:45:51;;;;;;;2.20;2.10;;;;;;;;;;5031516;28;20493;-75
2022/07/01 09:48:18;;;;;;;2.73;2.43;;;;;;;;;;5035422;28;20478;-77
2022/07/01 09:50:45;;;;;;;2.37;2.17;;;;;;;;;;5050779;28;20845;-76
2022/07/01 09:53:12;;;;;;;2.50;2.33;;;;;;;;;;5050773;28;20503;-76
2022/07/01 09:55:40;;;;;;;2.53;2.33;;;;;;;;;;5038734;28;20507;-77
2022/07/01 09:58:07;;;;;;;2.40;2.23;;;;;;;;;;5046053;28;20513;-76
2022/07/01 10:00:36;;;;;;;4.63;2.53;;;;;;;;;;5050940;28;20438;-76
2022/07/01 10:03:05;;;;;;;2.63;2.43;;;;;;;;;;5050274;28;20496;-75
2022/07/01 10:05:34;;;;;;;3.60;2.70;;;;;;;;;;5051528;28;20537;-75
2022/07/01 10:08:08;;;;;;;2.53;2.27;;;;;;;;;;5051867;28;20898;-76
2022/07/01 10:10:40;;;;;;;2.70;2.07;;;;;;;;;;5051752;28;20445;-76
2022/07/01 10:13:08;;;;;;;2.80;2.60;;;;;;;;;;5051135;28;20446;-77
2022/07/01 10:15:36;;;;;;;2.47;2.27;;;;;;;;;;5051784;28;20506;-76
2022/07/01 10:18:04;;;;;;;2.20;2.10;;;;;;;;;;5044791;28;20445;-76
2022/07/01 10:20:31;;;;;;;2.13;2.00;;;;;;;;;;5043141;28;20446;-76
2022/07/01 10:23:02;;;;;;;3.40;2.87;;;;;;;;;;5048609;28;20478;-76
2022/07/01 10:25:34;;;;;;;2.23;2.07;;;;;;;;;;5043928;28;20450;-77
2022/07/01 10:28:13;;;;;;;3.33;2.53;;;;;;;;;;5051285;28;21061;-76
2022/07/01 10:30:49;;;;;;;2.47;2.27;;;;;;;;;;5052031;28;20446;-77
2022/07/01 10:33:28;;;;;;;2.80;2.60;;;;;;;;;;5046853;28;20449;-77
2022/07/01 10:35:55;;;;;;;2.83;2.10;;;;;;;;;;5051579;28;20518;-76
2022/07/01 10:38:22;;;;;;;2.17;2.07;;;;;;;;;;5051771;28;20522;-77
2022/07/01 10:40:49;;;;;;;2.10;2.00;;;;;;;;;;5051581;28;20449;-76
2022/07/01 10:43:17;;;;;;;2.13;2.00;;;;;;;;;;5051262;28;20445;-77
2022/07/01 10:45:45;;;;;;;2.23;2.10;;;;;;;;;;5050989;28;20441;-76
2022/07/01 10:48:20;;;;;;;2.10;1.90;;;;;;;;;;5051064;28;20538;-79
2022/07/01 10:50:48;;;;;;;1.97;1.80;;;;;;;;;;5051255;28;20494;-77
2022/07/01 10:53:16;;;;;;;1.90;1.80;;;;;;;;;;5051097;28;20442;-76
2022/07/01 10:55:46;;;;;;;1.77;1.67;;;;;;;;;;5051306;28;20449;-75
2022/07/01 10:58:13;;;;;;;2.03;1.93;;;;;;;;;;5051367;28;20794;-76
2022/07/01 11:00:42;;;;;;;3.53;2.20;;;;;;;;;;5051224;28;20876;-76
2022/07/01 11:03:19;;;;;;;2.30;2.07;;;;;;;;;;5051569;28;20473;-77
2022/07/01 11:05:48;;;;;;;2.90;2.70;;;;;;;;;;5050966;28;20532;-76
2022/07/01 11:08:17;;;;;;;1.80;1.70;;;;;;;;;;5051172;28;20527;-76
2022/07/01 11:10:44;;;;;;;1.80;1.70;;;;;;;;;;5051098;28;20499;-77
2022/07/01 11:13:14;;;;;;;2.00;1.67;;;;;;;;;;5050980;28;20913;-77
2022/07/01 11:15:41;;;;;;;1.97;1.87;;;;;;;;;;5051402;28;20534;-76
2022/07/01 11:18:08;;;;;;;1.90;1.80;;;;;;;;;;5051611;28;20913;-77
2022/07/01 11:20:35;;;;;;;2.40;1.63;;;;;;;;;;5051440;28;20511;-77
2022/07/01 11:23:02;;;;;;;1.67;1.57;;;;;;;;;;5051202;28;20872;-76
2022/07/01 11:25:31;;;;;;;1.80;1.70;;;;;;;;;;5051246;28;20442;-76
2022/07/01 11:27:58;;;;;;;2.03;1.90;;;;;;;;;;5052003;28;20500;-76
2022/07/01 11:30:26;;;;;;;1.97;1.43;;;;;;;;;;5051840;28;20437;-76
2022/07/01 11:32:53;;;;;;;2.50;1.80;;;;;;;;;;5051009;28;20897;-76
2022/07/01 11:40:51;;;;;;;1.60;1.43;;;;;;;;;;5023476;28;20445;-76
2022/07/01 11:43:19;;;;;;;1.97;1.83;;;;;;;;;;5053992;28;20515;-75
2022/07/01 11:45:46;;;;;;;1.37;1.30;;;;;;;;;;5054466;28;20441;-75
2022/07/01 11:48:13;;;;;;;2.20;1.60;;;;;;;;;;5054596;28;20542;-76
2022/07/01 11:50:40;;;;;;;1.97;1.87;;;;;;;;;;5054736;28;20445;-77
2022/07/01 11:53:09;;;;;;;1.77;1.67;;;;;;;;;;5054655;28;20514;-76
2022/07/01 11:55:36;;;;;;;1.77;1.37;;;;;;;;;;5055915;28;20866;-76
2022/07/01 11:58:05;;;;;;;1.30;1.30;;;;;;;;;;5056226;28;20441;-77
2022/07/01 12:00:34;;;;;;;1.47;1.40;;;;;;;;;;5055271;28;20777;-77
2022/07/01 12:03:01;;;;;;;2.07;1.50;;;;;;;;;;5055042;28;20457;-76
2022/07/01 12:05:28;;;;;;;2.20;2.00;;;;;;;;;;5054949;28;20453;-76
2022/07/01 12:07:55;;;;;;;2.93;1.90;;;;;;;;;;5054340;28;20496;-75
2022/07/01 12:10:25;;;;;;;1.73;1.60;;;;;;;;;;5034288;28;20520;-76
2022/07/01 12:12:52;;;;;;;1.87;1.77;;;;;;;;;;5034371;28;20461;-77
2022/07/01 12:15:21;;;;;;;1.30;1.30;;;;;;;;;;5035087;28;20505;-76
2022/07/01 12:17:48;;;;;;;1.60;1.43;;;;;;;;;;5035221;28;20802;-76
2022/07/01 12:20:16;;;;;;;2.50;1.57;;;;;;;;;;5035114;28;20797;-76
2022/07/01 12:22:43;;;;;;;3.63;2.43;;;;;;;;;;5034526;28;20520;-75
2022/07/01 12:25:11;;;;;;;1.60;1.50;;;;;;;;;;5034442;28;20532;-76
2022/07/01 12:27:39;;;;;;;1.70;1.60;;;;;;;;;;5034244;28;20927;-75
2022/07/01 12:30:07;;;;;;;1.53;1.43;;;;;;;;;;5034386;28;20453;-75
2022/07/01 12:32:36;;;;;;;4.77;1.70;;;;;;;;;;5034035;28;21021;-77
2022/07/01 12:35:04;;;;;;;1.40;1.30;;;;;;;;;;5034245;28;20482;-76
2022/07/01 12:37:32;;;;;;;1.60;1.50;;;;;;;;;;5034456;28;20450;-76
2022/07/01 12:40:01;;;;;;;1.73;1.33;;;;;;;;;;5034410;28;20450;-75
2022/07/01 12:42:28;;;;;;;1.93;1.83;;;;;;;;;;5033836;28;20894;-77
2022/07/01 12:44:56;;;;;;;1.80;1.70;;;;;;;;;;5034211;28;20504;-76
2022/07/01 12:47:26;;;;;;;2.30;2.20;;;;;;;;;;5034021;28;20482;-75
2022/07/01 12:50:08;;;;;;;1.53;1.53;;;;;;;;;;5032801;28;20965;-76
2022/07/01 12:52:37;;;;;;;1.27;1.27;;;;;;;;;;5033315;28;20466;-76
2022/07/01 12:55:13;;;;;;;4.13;1.53;;;;;;;;;;5033594;28;20439;-76
2022/07/01 12:57:40;;;;;;;1.60;1.50;;;;;;;;;;5033539;28;20839;-77
2022/07/01 13:00:08;;;;;;;1.93;1.50;;;;;;;;;;5033595;28;20443;-76
2022/07/01 13:02:35;;;;;;;2.53;1.77;;;;;;;;;;5035043;28;20458;-76
2022/07/01 13:05:02;;;;;;;2.13;1.13;;;;;;;;;;5040830;28;20443;-76
2022/07/01 13:07:29;;;;;;;1.70;1.60;;;;;;;;;;5043805;28;20478;-76
2022/07/01 13:09:57;;;;;;;1.57;1.40;;;;;;;;;;5049648;28;20519;-76
2022/07/01 13:12:24;;;;;;;1.97;1.87;;;;;;;;;;5052855;28;20518;-75
2022/07/01 13:14:51;;;;;;;1.53;1.43;;;;;;;;;;5053092;28;20449;-76
2022/07/01 13:17:20;;;;;;;1.70;1.60;;;;;;;;;;5053244;28;20446;-76
2022/07/01 13:19:47;;;;;;;1.40;1.30;;;;;;;;;;5053016;28;20453;-75
2022/07/01 13:22:14;;;;;;;1.40;1.30;;;;;;;;;;5052901;28;21027;-76
2022/07/01 13:24:41;;;;;;;1.53;1.43;;;;;;;;;;5052483;28;20503;-75
2022/07/01 13:27:09;;;;;;;2.13;2.00;;;;;;;;;;5052697;28;20488;-75
2022/07/01 13:29:36;;;;;;;1.87;1.67;;;;;;;;;;5052515;28;20503;-76
2022/07/01 13:32:04;;;;;;;1.73;1.63;;;;;;;;;;5052566;28;20507;-76
2022/07/01 13:34:31;;;;;;;1.67;1.57;;;;;;;;;;5052418;28;20467;-76
2022/07/01 13:36:58;;;;;;;1.80;1.70;;;;;;;;;;5052864;28;20861;-76
2022/07/01 13:39:25;;;;;;;3.90;2.30;;;;;;;;;;5052523;28;20433;-76
2022/07/01 13:41:52;;;;;;;1.37;1.37;;;;;;;;;;5051899;28;20526;-76
2022/07/01 13:44:20;;;;;;;1.30;1.20;;;;;;;;;;5052213;28;20556;-76
2022/07/01 13:46:47;;;;;;;1.80;1.70;;;;;;;;;;5052638;28;20488;-75
2022/07/01 13:49:14;;;;;;;1.60;1.50;;;;;;;;;;5052306;28;20485;-76
2022/07/01 13:51:41;;;;;;;2.27;1.40;;;;;;;;;;5052048;28;20462;-76
2022/07/01 13:54:08;;;;;;;2.00;1.50;;;;;;;;;;5051902;28;20442;-76
2022/07/01 13:56:35;;;;;;;1.60;1.50;;;;;;;;;;5051936;28;20442;-76
2022/07/01 13:59:02;;;;;;;3.83;1.80;;;;;;;;;;5052359;28;20433;-76
2022/07/01 14:01:33;;;;;;;1.60;1.50;;;;;;;;;;5051222;28;20457;-77
2022/07/01 14:04:00;;;;;;;2.30;1.30;;;;;;;;;;5051690;28;21206;-76
2022/07/01 14:06:27;;;;;;;1.80;1.70;;;;;;;;;;5051894;28;20507;-76
2022/07/01 14:08:54;;;;;;;1.53;1.43;;;;;;;;;;5043399;28;20993;-76
2022/07/01 14:11:22;;;;;;;1.77;1.63;;;;;;;;;;5031806;28;20486;-76
2022/07/01 14:13:49;;;;;;;1.30;1.30;;;;;;;;;;5031815;28;20520;-76
2022/07/01 14:16:16;;;;;;;2.23;2.00;;;;;;;;;;5031850;28;20473;-76
2022/07/01 14:18:46;;;;;;;1.50;1.40;;;;;;;;;;5031881;28;20458;-76
2022/07/01 14:21:13;;;;;;;1.40;1.30;;;;;;;;;;5031758;28;20883;-76
2022/07/01 14:23:40;;;;;;;1.83;1.33;;;;;;;;;;5031137;28;20508;-77
2022/07/01 14:26:07;;;;;;;1.07;1.07;;;;;;;;;;5032429;28;20449;-76
2022/07/01 14:28:34;;;;;;;2.10;1.63;;;;;;;;;;5031555;28;20478;-76
2022/07/01 14:31:01;;;;;;;1.57;1.47;;;;;;;;;;5032290;28;20557;-76
2022/07/01 14:33:28;;;;;;;1.57;1.40;;;;;;;;;;5031491;28;20515;-76
2022/07/01 14:35:56;;;;;;;1.27;1.17;;;;;;;;;;5031563;28;20442;-75
2022/07/01 14:38:23;;;;;;;2.00;1.30;;;;;;;;;;5031636;28;20505;-76
2022/07/01 14:40:50;;;;;;;1.67;1.50;;;;;;;;;;5031418;28;20442;-75
2022/07/01 14:43:18;;;;;;;2.97;1.23;;;;;;;;;;5031437;28;20497;-76
2022/07/01 14:45:46;;;;;;;1.33;1.23;;;;;;;;;;5032024;28;20450;-75
2022/07/01 14:48:13;;;;;;;1.23;1.23;;;;;;;;;;5032276;28;20481;-75
2022/07/01 14:50:41;;;;;;;1.27;1.10;;;;;;;;;;5031979;28;20431;-75
2022/07/01 14:53:09;;;;;;;2.40;1.50;;;;;;;;;;5032538;28;20443;-76
2022/07/01 14:55:37;;;;;;;1.20;1.20;;;;;;;;;;5038013;28;20662;-74
2022/07/01 14:58:04;;;;;;;3.30;1.50;;;;;;;;;;5038161;28;20430;-76
2022/07/01 15:00:36;;;;;;;1.40;1.30;;;;;;;;;;5039511;28;20454;-76
2022/07/01 15:03:03;;;;;;;1.73;1.63;;;;;;;;;;5039944;28;20588;-74
2022/07/01 15:05:30;;;;;;;1.10;1.10;;;;;;;;;;5039549;28;20481;-75
2022/07/01 15:07:58;;;;;;;1.23;1.03;;;;;;;;;;5032865;28;20492;-75
2022/07/01 15:10:26;;;;;;;1.87;1.10;;;;;;;;;;5051869;28;20849;-75